sensor_id;sensor_type;location;lat;lon;timestamp;pressure;altitude;pressure_sealevel;temperature;humidity
64211;BME280;73293;48.538;14.354;2024-03-17T00:00:26;94247.27;;;7.38;100.00
64211;BME280;73293;48.538;14.354;2024-03-17T00:01:22;94245.86;;;7.38;100.00
64211;BME280;73293;48.538;14.354;2024-03-17T00:01:56;94248.27;;;7.40;100.00
64211;BME280;73293;48.538;14.354;2024-03-17T00:03:05;94249.04;;;7.45;100.00
64211;BME280;73293;48.538;14.354;2024-03-17T00:03:38;94252.05;;;7.42;100.00
64211;BME280;73293;48.538;14.354;2024-03-17T00:04:12;94247.91;;;7.40;100.00
64211;BME280;73293;48.538;14.354;2024-03-17T00:04:46;94241.02;;;7.37;100.00
64211;BME280;73293;48.538;14.354;2024-03-17T00:05:19;94242.45;;;7.38;100.00
64211;BME280;73293;48.538;14.354;2024-03-17T00:05:59;94241.81;;;7.37;100.00
64211;BME280;73293;48.538;14.354;2024-03-17T00:06:45;94234.20;;;7.37;100.00
64211;BME280;73293;48.538;14.354;2024-03-17T00:07:21;94237.20;;;7.35;100.00
64211;BME280;73293;48.538;14.354;2024-03-17T00:07:54;94235.20;;;7.35;100.00
64211;BME280;73293;48.538;14.354;2024-03-17T00:08:28;94239.32;;;7.34;100.00
64211;BME280;73293;48.538;14.354;2024-03-17T00:09:02;94236.57;;;7.31;100.00
64211;BME280;73293;48.538;14.354;2024-03-17T00:09:39;94236.35;;;7.33;100.00
64211;BME280;73293;48.538;14.354;2024-03-17T00:10:24;94234.64;;;7.35;100.00
64211;BME280;73293;48.538;14.354;2024-03-17T00:10:57;94236.59;;;7.32;100.00
64211;BME280;73293;48.538;14.354;2024-03-17T00:11:32;94236.39;;;7.33;100.00
64211;BME280;73293;48.538;14.354;2024-03-17T00:12:05;94239.34;;;7.31;100.00
64211;BME280;73293;48.538;14.354;2024-03-17T00:12:38;94240.41;;;7.32;100.00
64211;BME280;73293;48.538;14.354;2024-03-17T00:13:12;94245.09;;;7.40;100.00
64211;BME280;73293;48.538;14.354;2024-03-17T00:14:05;94238.49;;;7.52;100.00
64211;BME280;73293;48.538;14.354;2024-03-17T00:14:39;94249.93;;;7.47;100.00
64211;BME280;73293;48.538;14.354;2024-03-17T00:15:14;94246.13;;;7.36;100.00
64211;BME280;73293;48.538;14.354;2024-03-17T00:15:48;94250.84;;;7.33;100.00
64211;BME280;73293;48.538;14.354;2024-03-17T00:16:21;94250.65;;;7.40;100.00
64211;BME280;73293;48.538;14.354;2024-03-17T00:16:55;94254.95;;;7.38;100.00
64211;BME280;73293;48.538;14.354;2024-03-17T00:17:43;94251.48;;;7.37;100.00
64211;BME280;73293;48.538;14.354;2024-03-17T00:18:17;94257.11;;;7.33;100.00
64211;BME280;73293;48.538;14.354;2024-03-17T00:18:51;94256.73;;;7.31;100.00
64211;BME280;73293;48.538;14.354;2024-03-17T00:19:24;94258.55;;;7.30;100.00
64211;BME280;73293;48.538;14.354;2024-03-17T00:19:59;94257.80;;;7.28;100.00
64211;BME280;73293;48.538;14.354;2024-03-17T00:20:34;94260.23;;;7.26;100.00
64211;BME280;73293;48.538;14.354;2024-03-17T00:21:21;94256.30;;;7.25;100.00
64211;BME280;73293;48.538;14.354;2024-03-17T00:21:55;94254.98;;;7.21;100.00
64211;BME280;73293;48.538;14.354;2024-03-17T00:22:30;94258.63;;;7.22;100.00
64211;BME280;73293;48.538;14.354;2024-03-17T00:23:04;94256.50;;;7.21;100.00
64211;BME280;73293;48.538;14.354;2024-03-17T00:23:42;94260.52;;;7.25;100.00
64211;BME280;73293;48.538;14.354;2024-03-17T00:24:16;94260.00;;;7.25;100.00
64211;BME280;73293;48.538;14.354;2024-03-17T00:25:03;94264.89;;;7.27;100.00
64211;BME280;73293;48.538;14.354;2024-03-17T00:25:37;94264.75;;;7.24;100.00
64211;BME280;73293;48.538;14.354;2024-03-17T00:26:10;94269.56;;;7.24;100.00
64211;BME280;73293;48.538;14.354;2024-03-17T00:26:44;94270.36;;;7.23;100.00
64211;BME280;73293;48.538;14.354;2024-03-17T00:27:18;94270.65;;;7.22;100.00
64211;BME280;73293;48.538;14.354;2024-03-17T00:27:52;94270.73;;;7.23;100.00
64211;BME280;73293;48.538;14.354;2024-03-17T00:28:45;94267.65;;;7.25;100.00
64211;BME280;73293;48.538;14.354;2024-03-17T00:29:21;94268.15;;;7.23;100.00
64211;BME280;73293;48.538;14.354;2024-03-17T00:29:55;94269.13;;;7.22;100.00
64211;BME280;73293;48.538;14.354;2024-03-17T00:30:29;94268.80;;;7.22;100.00
64211;BME280;73293;48.538;14.354;2024-03-17T00:31:06;94265.07;;;7.20;100.00
64211;BME280;73293;48.538;14.354;2024-03-17T00:31:40;94258.44;;;7.20;100.00
64211;BME280;73293;48.538;14.354;2024-03-17T00:32:28;94260.81;;;7.29;100.00
64211;BME280;73293;48.538;14.354;2024-03-17T00:33:03;94262.11;;;7.24;100.00
64211;BME280;73293;48.538;14.354;2024-03-17T00:33:37;94262.61;;;7.20;100.00
64211;BME280;73293;48.538;14.354;2024-03-17T00:34:11;94260.88;;;7.20;100.00
64211;BME280;73293;48.538;14.354;2024-03-17T00:34:44;94261.52;;;7.17;100.00
64211;BME280;73293;48.538;14.354;2024-03-17T00:35:18;94266.30;;;7.19;100.00
64211;BME280;73293;48.538;14.354;2024-03-17T00:36:07;94265.34;;;7.25;100.00
64211;BME280;73293;48.538;14.354;2024-03-17T00:36:40;94264.70;;;7.18;100.00
64211;BME280;73293;48.538;14.354;2024-03-17T00:37:14;94262.17;;;7.16;100.00
64211;BME280;73293;48.538;14.354;2024-03-17T00:37:48;94262.73;;;7.17;100.00
64211;BME280;73293;48.538;14.354;2024-03-17T00:38:22;94261.81;;;7.24;100.00
64211;BME280;73293;48.538;14.354;2024-03-17T00:38:57;94266.46;;;7.19;100.00
64211;BME280;73293;48.538;14.354;2024-03-17T00:39:44;94267.23;;;7.17;100.00
64211;BME280;73293;48.538;14.354;2024-03-17T00:40:19;94263.52;;;7.06;100.00
64211;BME280;73293;48.538;14.354;2024-03-17T00:40:53;94269.44;;;7.09;100.00
64211;BME280;73293;48.538;14.354;2024-03-17T00:41:27;94271.37;;;7.09;100.00
64211;BME280;73293;48.538;14.354;2024-03-17T00:42:01;94270.48;;;7.09;100.00
64211;BME280;73293;48.538;14.354;2024-03-17T00:42:34;94267.39;;;7.05;100.00
64211;BME280;73293;48.538;14.354;2024-03-17T00:43:23;94268.30;;;7.08;100.00
64211;BME280;73293;48.538;14.354;2024-03-17T00:43:57;94267.08;;;7.03;100.00
64211;BME280;73293;48.538;14.354;2024-03-17T00:44:31;94264.98;;;7.02;100.00
64211;BME280;73293;48.538;14.354;2024-03-17T00:45:05;94266.48;;;7.01;100.00
64211;BME280;73293;48.538;14.354;2024-03-17T00:45:39;94267.31;;;7.03;100.00
64211;BME280;73293;48.538;14.354;2024-03-17T00:46:13;94263.91;;;7.01;100.00
64211;BME280;73293;48.538;14.354;2024-03-17T00:47:02;94264.88;;;7.03;100.00
64211;BME280;73293;48.538;14.354;2024-03-17T00:47:36;94265.74;;;7.00;100.00
64211;BME280;73293;48.538;14.354;2024-03-17T00:48:10;94270.73;;;6.99;100.00
64211;BME280;73293;48.538;14.354;2024-03-17T00:48:46;94269.48;;;7.00;100.00
64211;BME280;73293;48.538;14.354;2024-03-17T00:49:19;94269.37;;;6.98;100.00
64211;BME280;73293;48.538;14.354;2024-03-17T00:49:53;94268.77;;;6.98;100.00
64211;BME280;73293;48.538;14.354;2024-03-17T00:50:41;94264.05;;;7.00;100.00
64211;BME280;73293;48.538;14.354;2024-03-17T00:51:18;94265.27;;;6.97;100.00
64211;BME280;73293;48.538;14.354;2024-03-17T00:51:52;94265.15;;;6.97;100.00
64211;BME280;73293;48.538;14.354;2024-03-17T00:52:25;94262.17;;;6.95;100.00
64211;BME280;73293;48.538;14.354;2024-03-17T00:53:00;94264.71;;;6.92;100.00
64211;BME280;73293;48.538;14.354;2024-03-17T00:53:37;94267.13;;;6.91;100.00
64211;BME280;73293;48.538;14.354;2024-03-17T00:54:24;94262.84;;;6.95;100.00
64211;BME280;73293;48.538;14.354;2024-03-17T00:55:02;94259.50;;;6.91;100.00
64211;BME280;73293;48.538;14.354;2024-03-17T00:55:35;94258.48;;;6.92;100.00
64211;BME280;73293;48.538;14.354;2024-03-17T00:56:08;94260.20;;;6.94;100.00
64211;BME280;73293;48.538;14.354;2024-03-17T00:56:42;94257.08;;;6.96;100.00
64211;BME280;73293;48.538;14.354;2024-03-17T00:57:16;94253.14;;;6.92;100.00
64211;BME280;73293;48.538;14.354;2024-03-17T00:58:00;94250.73;;;6.92;100.00
64211;BME280;73293;48.538;14.354;2024-03-17T00:58:35;94246.16;;;6.88;100.00
64211;BME280;73293;48.538;14.354;2024-03-17T00:59:09;94250.52;;;6.90;100.00
64211;BME280;73293;48.538;14.354;2024-03-17T00:59:43;94251.09;;;6.93;100.00
64211;BME280;73293;48.538;14.354;2024-03-17T01:00:17;94248.91;;;6.92;100.00
64211;BME280;73293;48.538;14.354;2024-03-17T01:00:51;94251.61;;;6.88;100.00
64211;BME280;73293;48.538;14.354;2024-03-17T01:01:39;94254.81;;;6.87;100.00
64211;BME280;73293;48.538;14.354;2024-03-17T01:02:16;94257.13;;;6.81;100.00
64211;BME280;73293;48.538;14.354;2024-03-17T01:02:50;94255.97;;;6.79;100.00
64211;BME280;73293;48.538;14.354;2024-03-17T01:03:24;94260.86;;;6.80;100.00
64211;BME280;73293;48.538;14.354;2024-03-17T01:03:57;94265.70;;;6.81;100.00
64211;BME280;73293;48.538;14.354;2024-03-17T01:04:31;94268.73;;;6.87;100.00
64211;BME280;73293;48.538;14.354;2024-03-17T01:05:19;94266.79;;;6.89;100.00
64211;BME280;73293;48.538;14.354;2024-03-17T01:05:53;94266.57;;;6.86;100.00
64211;BME280;73293;48.538;14.354;2024-03-17T01:06:26;94268.98;;;6.81;100.00
64211;BME280;73293;48.538;14.354;2024-03-17T01:07:00;94270.64;;;6.84;100.00
64211;BME280;73293;48.538;14.354;2024-03-17T01:07:33;94274.70;;;6.83;100.00
64211;BME280;73293;48.538;14.354;2024-03-17T01:08:07;94276.59;;;6.85;100.00
64211;BME280;73293;48.538;14.354;2024-03-17T01:09:01;94274.80;;;6.96;100.00
64211;BME280;73293;48.538;14.354;2024-03-17T01:09:34;94275.31;;;6.94;100.00
64211;BME280;73293;48.538;14.354;2024-03-17T01:10:08;94281.92;;;6.86;100.00
64211;BME280;73293;48.538;14.354;2024-03-17T01:10:41;94280.52;;;6.87;100.00
64211;BME280;73293;48.538;14.354;2024-03-17T01:11:15;94283.14;;;6.85;100.00
64211;BME280;73293;48.538;14.354;2024-03-17T01:11:52;94288.61;;;6.84;100.00
64211;BME280;73293;48.538;14.354;2024-03-17T01:12:42;94288.52;;;6.86;100.00
64211;BME280;73293;48.538;14.354;2024-03-17T01:13:16;94286.87;;;6.85;100.00
64211;BME280;73293;48.538;14.354;2024-03-17T01:13:51;94289.29;;;6.80;100.00
64211;BME280;73293;48.538;14.354;2024-03-17T01:14:25;94287.45;;;6.67;100.00
64211;BME280;73293;48.538;14.354;2024-03-17T01:15:05;94291.61;;;6.62;100.00
64211;BME280;73293;48.538;14.354;2024-03-17T01:15:39;94288.54;;;6.55;100.00
64211;BME280;73293;48.538;14.354;2024-03-17T01:16:21;94291.79;;;6.62;100.00
64211;BME280;73293;48.538;14.354;2024-03-17T01:16:55;94294.77;;;6.53;100.00
64211;BME280;73293;48.538;14.354;2024-03-17T01:17:29;94294.27;;;6.46;100.00
64211;BME280;73293;48.538;14.354;2024-03-17T01:18:03;94291.41;;;6.46;100.00
64211;BME280;73293;48.538;14.354;2024-03-17T01:18:37;94295.95;;;6.51;100.00
64211;BME280;73293;48.538;14.354;2024-03-17T01:19:13;94293.24;;;6.54;100.00
64211;BME280;73293;48.538;14.354;2024-03-17T01:20:03;94290.29;;;6.64;100.00
64211;BME280;73293;48.538;14.354;2024-03-17T01:20:38;94288.98;;;6.53;100.00
64211;BME280;73293;48.538;14.354;2024-03-17T01:21:12;94288.57;;;6.44;100.00
64211;BME280;73293;48.538;14.354;2024-03-17T01:21:46;94288.10;;;6.47;100.00
64211;BME280;73293;48.538;14.354;2024-03-17T01:22:19;94293.41;;;6.52;100.00
64211;BME280;73293;48.538;14.354;2024-03-17T01:22:53;94291.42;;;6.61;100.00
64211;BME280;73293;48.538;14.354;2024-03-17T01:23:41;94291.95;;;6.61;100.00
64211;BME280;73293;48.538;14.354;2024-03-17T01:24:15;94291.52;;;6.48;100.00
64211;BME280;73293;48.538;14.354;2024-03-17T01:24:49;94290.82;;;6.49;100.00
64211;BME280;73293;48.538;14.354;2024-03-17T01:25:23;94289.52;;;6.47;100.00
64211;BME280;73293;48.538;14.354;2024-03-17T01:25:58;94287.27;;;6.46;100.00
64211;BME280;73293;48.538;14.354;2024-03-17T01:26:32;94290.52;;;6.45;100.00
64211;BME280;73293;48.538;14.354;2024-03-17T01:27:23;94287.87;;;6.39;100.00
64211;BME280;73293;48.538;14.354;2024-03-17T01:27:57;94290.63;;;6.40;100.00
64211;BME280;73293;48.538;14.354;2024-03-17T01:28:31;94295.65;;;6.53;100.00
64211;BME280;73293;48.538;14.354;2024-03-17T01:29:05;94287.66;;;6.49;100.00
64211;BME280;73293;48.538;14.354;2024-03-17T01:29:38;94289.42;;;6.40;100.00
64211;BME280;73293;48.538;14.354;2024-03-17T01:30:12;94289.87;;;6.33;100.00
64211;BME280;73293;48.538;14.354;2024-03-17T01:31:05;94289.86;;;6.41;100.00
64211;BME280;73293;48.538;14.354;2024-03-17T01:31:38;94290.51;;;6.41;100.00
64211;BME280;73293;48.538;14.354;2024-03-17T01:32:12;94286.16;;;6.29;100.00
64211;BME280;73293;48.538;14.354;2024-03-17T01:32:46;94292.04;;;6.33;100.00
64211;BME280;73293;48.538;14.354;2024-03-17T01:33:20;94289.17;;;6.37;100.00
64211;BME280;73293;48.538;14.354;2024-03-17T01:33:54;94286.92;;;6.37;100.00
64211;BME280;73293;48.538;14.354;2024-03-17T01:34:41;94287.92;;;6.36;100.00
64211;BME280;73293;48.538;14.354;2024-03-17T01:35:19;94291.75;;;6.35;100.00
64211;BME280;73293;48.538;14.354;2024-03-17T01:35:53;94283.23;;;6.21;100.00
64211;BME280;73293;48.538;14.354;2024-03-17T01:36:26;94285.48;;;6.18;100.00
64211;BME280;73293;48.538;14.354;2024-03-17T01:36:59;94287.73;;;6.18;100.00
64211;BME280;73293;48.538;14.354;2024-03-17T01:37:33;94283.83;;;6.23;100.00
64211;BME280;73293;48.538;14.354;2024-03-17T01:38:22;94281.24;;;6.23;100.00
64211;BME280;73293;48.538;14.354;2024-03-17T01:38:56;94281.58;;;6.14;100.00
64211;BME280;73293;48.538;14.354;2024-03-17T01:39:30;94284.62;;;6.14;100.00
64211;BME280;73293;48.538;14.354;2024-03-17T01:40:05;94284.10;;;6.14;100.00
64211;BME280;73293;48.538;14.354;2024-03-17T01:40:44;94286.35;;;6.13;100.00
64211;BME280;73293;48.538;14.354;2024-03-17T01:41:18;94283.98;;;6.17;100.00
64211;BME280;73293;48.538;14.354;2024-03-17T01:42:07;94283.43;;;6.30;100.00
64211;BME280;73293;48.538;14.354;2024-03-17T01:42:41;94285.23;;;6.19;100.00
64211;BME280;73293;48.538;14.354;2024-03-17T01:43:15;94279.84;;;6.18;100.00
64211;BME280;73293;48.538;14.354;2024-03-17T01:43:48;94284.04;;;6.13;99.99
64211;BME280;73293;48.538;14.354;2024-03-17T01:44:23;94283.13;;;6.09;100.00
64211;BME280;73293;48.538;14.354;2024-03-17T01:44:56;94277.43;;;6.08;100.00
64211;BME280;73293;48.538;14.354;2024-03-17T01:45:45;94273.95;;;6.06;100.00
64211;BME280;73293;48.538;14.354;2024-03-17T01:46:19;94277.26;;;6.02;100.00
64211;BME280;73293;48.538;14.354;2024-03-17T01:46:53;94277.49;;;6.02;100.00
64211;BME280;73293;48.538;14.354;2024-03-17T01:47:27;94282.65;;;6.07;100.00
64211;BME280;73293;48.538;14.354;2024-03-17T01:48:02;94284.23;;;6.20;100.00
64211;BME280;73293;48.538;14.354;2024-03-17T01:48:37;94281.27;;;6.11;100.00
64211;BME280;73293;48.538;14.354;2024-03-17T01:49:23;94286.37;;;6.18;100.00
64211;BME280;73293;48.538;14.354;2024-03-17T01:49:59;94290.96;;;6.16;99.66
64211;BME280;73293;48.538;14.354;2024-03-17T01:50:33;94294.80;;;6.07;99.97
64211;BME280;73293;48.538;14.354;2024-03-17T01:51:10;94289.42;;;6.09;99.94
64211;BME280;73293;48.538;14.354;2024-03-17T01:51:44;94293.94;;;5.98;100.00
64211;BME280;73293;48.538;14.354;2024-03-17T01:52:19;94292.55;;;5.95;100.00
64211;BME280;73293;48.538;14.354;2024-03-17T01:53:04;94293.05;;;5.96;100.00
64211;BME280;73293;48.538;14.354;2024-03-17T01:53:38;94298.52;;;5.94;100.00
64211;BME280;73293;48.538;14.354;2024-03-17T01:54:12;94301.52;;;5.99;100.00
64211;BME280;73293;48.538;14.354;2024-03-17T01:54:47;94297.70;;;5.98;99.99
64211;BME280;73293;48.538;14.354;2024-03-17T01:55:27;94299.10;;;5.94;99.99
64211;BME280;73293;48.538;14.354;2024-03-17T01:56:01;94300.52;;;5.96;99.68
64211;BME280;73293;48.538;14.354;2024-03-17T01:56:47;94295.40;;;5.92;99.90
64211;BME280;73293;48.538;14.354;2024-03-17T01:57:21;94290.79;;;5.90;99.88
64211;BME280;73293;48.538;14.354;2024-03-17T01:57:54;94288.99;;;5.88;99.63
64211;BME280;73293;48.538;14.354;2024-03-17T01:58:29;94290.06;;;5.85;99.81
64211;BME280;73293;48.538;14.354;2024-03-17T01:59:03;94290.60;;;5.86;99.52
64211;BME280;73293;48.538;14.354;2024-03-17T01:59:38;94291.69;;;5.97;97.89
64211;BME280;73293;48.538;14.354;2024-03-17T02:00:28;94293.39;;;6.04;97.03
64211;BME280;73293;48.538;14.354;2024-03-17T02:01:04;94294.88;;;5.93;96.96
64211;BME280;73293;48.538;14.354;2024-03-17T02:01:38;94294.56;;;5.91;96.96
64211;BME280;73293;48.538;14.354;2024-03-17T02:02:12;94292.05;;;5.87;96.74
64211;BME280;73293;48.538;14.354;2024-03-17T02:02:46;94294.04;;;5.90;96.15
64211;BME280;73293;48.538;14.354;2024-03-17T02:03:20;94292.43;;;5.84;95.99
64211;BME280;73293;48.538;14.354;2024-03-17T02:04:08;94295.48;;;5.74;96.38
64211;BME280;73293;48.538;14.354;2024-03-17T02:04:42;94297.17;;;5.70;96.14
64211;BME280;73293;48.538;14.354;2024-03-17T02:05:16;94289.84;;;5.65;95.71
64211;BME280;73293;48.538;14.354;2024-03-17T02:05:50;94295.13;;;5.72;95.31
64211;BME280;73293;48.538;14.354;2024-03-17T02:06:24;94293.56;;;5.68;95.67
64211;BME280;73293;48.538;14.354;2024-03-17T02:06:58;94295.95;;;5.62;96.02
64211;BME280;73293;48.538;14.354;2024-03-17T02:07:46;94293.06;;;5.61;96.77
64211;BME280;73293;48.538;14.354;2024-03-17T02:08:20;94288.80;;;5.54;96.97
64211;BME280;73293;48.538;14.354;2024-03-17T02:08:55;94297.39;;;5.55;97.00
64211;BME280;73293;48.538;14.354;2024-03-17T02:09:29;94298.75;;;5.53;96.95
64211;BME280;73293;48.538;14.354;2024-03-17T02:10:04;94291.48;;;5.55;96.48
64211;BME280;73293;48.538;14.354;2024-03-17T02:10:40;94295.47;;;5.46;96.82
64211;BME280;73293;48.538;14.354;2024-03-17T02:11:27;94293.32;;;5.59;96.74
64211;BME280;73293;48.538;14.354;2024-03-17T02:12:01;94290.02;;;5.46;96.67
64211;BME280;73293;48.538;14.354;2024-03-17T02:12:36;94288.48;;;5.39;97.03
64211;BME280;73293;48.538;14.354;2024-03-17T02:13:09;94291.35;;;5.36;97.38
64211;BME280;73293;48.538;14.354;2024-03-17T02:13:42;94291.16;;;5.32;97.24
64211;BME280;73293;48.538;14.354;2024-03-17T02:14:16;94288.96;;;5.28;97.42
64211;BME280;73293;48.538;14.354;2024-03-17T02:15:05;94294.09;;;5.34;97.56
64211;BME280;73293;48.538;14.354;2024-03-17T02:15:39;94293.77;;;5.37;97.01
64211;BME280;73293;48.538;14.354;2024-03-17T02:16:13;94293.21;;;5.30;97.02
64211;BME280;73293;48.538;14.354;2024-03-17T02:16:46;94295.83;;;5.26;97.30
64211;BME280;73293;48.538;14.354;2024-03-17T02:17:20;94296.54;;;5.30;97.13
64211;BME280;73293;48.538;14.354;2024-03-17T02:17:54;94300.55;;;5.23;97.10
64211;BME280;73293;48.538;14.354;2024-03-17T02:18:42;94299.32;;;5.23;97.39
64211;BME280;73293;48.538;14.354;2024-03-17T02:19:17;94293.79;;;5.17;97.51
64211;BME280;73293;48.538;14.354;2024-03-17T02:19:52;94297.67;;;5.20;97.58
64211;BME280;73293;48.538;14.354;2024-03-17T02:20:28;94297.82;;;5.18;97.69
64211;BME280;73293;48.538;14.354;2024-03-17T02:21:21;94297.09;;;5.15;97.73
64211;BME280;73293;48.538;14.354;2024-03-17T02:21:57;94300.38;;;5.16;97.91
64211;BME280;73293;48.538;14.354;2024-03-17T02:22:43;94299.65;;;5.16;97.93
64211;BME280;73293;48.538;14.354;2024-03-17T02:23:17;94297.64;;;5.14;98.03
64211;BME280;73293;48.538;14.354;2024-03-17T02:23:54;94299.81;;;5.16;97.90
64211;BME280;73293;48.538;14.354;2024-03-17T02:24:28;94295.73;;;5.16;97.39
64211;BME280;73293;48.538;14.354;2024-03-17T02:25:02;94301.73;;;5.13;97.47
64211;BME280;73293;48.538;14.354;2024-03-17T02:25:36;94302.52;;;5.24;96.79
64211;BME280;73293;48.538;14.354;2024-03-17T02:26:25;94297.00;;;5.17;96.98
64211;BME280;73293;48.538;14.354;2024-03-17T02:26:58;94297.58;;;5.11;97.11
64211;BME280;73293;48.538;14.354;2024-03-17T02:27:32;94302.52;;;5.06;97.24
64211;BME280;73293;48.538;14.354;2024-03-17T02:28:05;94302.15;;;5.04;97.38
64211;BME280;73293;48.538;14.354;2024-03-17T02:28:42;94300.86;;;5.02;97.49
64211;BME280;73293;48.538;14.354;2024-03-17T02:29:16;94302.55;;;5.01;97.63
64211;BME280;73293;48.538;14.354;2024-03-17T02:30:02;94302.59;;;5.02;97.69
64211;BME280;73293;48.538;14.354;2024-03-17T02:30:37;94299.30;;;4.99;97.80
64211;BME280;73293;48.538;14.354;2024-03-17T02:31:11;94299.30;;;5.08;97.49
64211;BME280;73293;48.538;14.354;2024-03-17T02:31:46;94300.17;;;5.16;96.79
64211;BME280;73293;48.538;14.354;2024-03-17T02:32:20;94298.36;;;5.14;96.53
64211;BME280;73293;48.538;14.354;2024-03-17T02:32:55;94292.65;;;5.09;96.58
64211;BME280;73293;48.538;14.354;2024-03-17T02:33:42;94296.13;;;5.10;96.65
64211;BME280;73293;48.538;14.354;2024-03-17T02:34:17;94294.09;;;4.99;96.95
64211;BME280;73293;48.538;14.354;2024-03-17T02:34:50;94292.23;;;4.93;97.16
64211;BME280;73293;48.538;14.354;2024-03-17T02:35:24;94298.68;;;4.96;97.49
64211;BME280;73293;48.538;14.354;2024-03-17T02:35:58;94300.73;;;4.94;97.48
64211;BME280;73293;48.538;14.354;2024-03-17T02:36:32;94303.67;;;4.93;97.62
64211;BME280;73293;48.538;14.354;2024-03-17T02:37:20;94302.99;;;4.96;97.66
64211;BME280;73293;48.538;14.354;2024-03-17T02:37:55;94304.48;;;5.01;97.93
64211;BME280;73293;48.538;14.354;2024-03-17T02:38:28;94302.46;;;5.07;97.65
64211;BME280;73293;48.538;14.354;2024-03-17T02:39:21;94299.46;;;5.07;97.03
64211;BME280;73293;48.538;14.354;2024-03-17T02:40:11;94306.48;;;5.00;97.30
64211;BME280;73293;48.538;14.354;2024-03-17T02:40:58;94303.78;;;4.98;97.70
64211;BME280;73293;48.538;14.354;2024-03-17T02:41:33;94298.34;;;4.89;97.75
64211;BME280;73293;48.538;14.354;2024-03-17T02:42:07;94301.39;;;4.93;97.80
64211;BME280;73293;48.538;14.354;2024-03-17T02:42:40;94301.66;;;4.92;97.89
64211;BME280;73293;48.538;14.354;2024-03-17T02:43:14;94304.84;;;4.94;98.08
64211;BME280;73293;48.538;14.354;2024-03-17T02:43:48;94306.15;;;4.98;98.18
64211;BME280;73293;48.538;14.354;2024-03-17T02:44:37;94306.07;;;5.12;97.40
64211;BME280;73293;48.538;14.354;2024-03-17T02:45:11;94307.08;;;5.11;97.24
64211;BME280;73293;48.538;14.354;2024-03-17T02:45:46;94307.42;;;5.08;97.07
64211;BME280;73293;48.538;14.354;2024-03-17T02:46:21;94307.59;;;5.07;97.12
64211;BME280;73293;48.538;14.354;2024-03-17T02:46:55;94304.86;;;5.00;97.25
64211;BME280;73293;48.538;14.354;2024-03-17T02:47:29;94305.91;;;5.02;97.35
64211;BME280;73293;48.538;14.354;2024-03-17T02:48:31;94306.00;;;5.01;97.60
64211;BME280;73293;48.538;14.354;2024-03-17T02:49:05;94305.89;;;4.94;97.77
64211;BME280;73293;48.538;14.354;2024-03-17T02:49:40;94304.73;;;4.90;97.79
64211;BME280;73293;48.538;14.354;2024-03-17T02:50:18;94307.43;;;4.89;97.96
64211;BME280;73293;48.538;14.354;2024-03-17T02:50:52;94303.63;;;4.87;98.09
64211;BME280;73293;48.538;14.354;2024-03-17T02:51:27;94297.38;;;4.84;98.16
64211;BME280;73293;48.538;14.354;2024-03-17T02:52:11;94298.41;;;4.88;98.22
64211;BME280;73293;48.538;14.354;2024-03-17T02:52:46;94305.23;;;4.88;98.52
64211;BME280;73293;48.538;14.354;2024-03-17T02:53:19;94306.10;;;5.09;98.35
64211;BME280;73293;48.538;14.354;2024-03-17T02:53:53;94307.11;;;5.13;97.47
64211;BME280;73293;48.538;14.354;2024-03-17T02:54:27;94314.02;;;5.05;97.75
64211;BME280;73293;48.538;14.354;2024-03-17T02:55:08;94303.05;;;4.89;98.38
64211;BME280;73293;48.538;14.354;2024-03-17T02:55:52;94304.80;;;4.89;98.54
64211;BME280;73293;48.538;14.354;2024-03-17T02:56:26;94306.11;;;4.85;98.57
64211;BME280;73293;48.538;14.354;2024-03-17T02:56:59;94302.95;;;4.83;98.67
64211;BME280;73293;48.538;14.354;2024-03-17T02:57:33;94301.48;;;4.81;98.74
64211;BME280;73293;48.538;14.354;2024-03-17T02:58:06;94307.27;;;4.83;98.93
64211;BME280;73293;48.538;14.354;2024-03-17T02:58:40;94307.75;;;4.89;99.00
64211;BME280;73293;48.538;14.354;2024-03-17T02:59:30;94309.71;;;4.93;98.74
64211;BME280;73293;48.538;14.354;2024-03-17T03:00:04;94304.82;;;4.88;98.79
64211;BME280;73293;48.538;14.354;2024-03-17T03:00:42;94301.71;;;4.87;98.83
64211;BME280;73293;48.538;14.354;2024-03-17T03:01:16;94298.74;;;4.87;98.79
64211;BME280;73293;48.538;14.354;2024-03-17T03:01:50;94291.69;;;4.85;98.75
64211;BME280;73293;48.538;14.354;2024-03-17T03:02:24;94293.13;;;4.85;98.99
64211;BME280;73293;48.538;14.354;2024-03-17T03:03:08;94292.73;;;4.92;99.06
64211;BME280;73293;48.538;14.354;2024-03-17T03:03:41;94296.78;;;4.88;98.92
64211;BME280;73293;48.538;14.354;2024-03-17T03:04:15;94293.96;;;4.84;98.93
64211;BME280;73293;48.538;14.354;2024-03-17T03:04:50;94285.97;;;4.79;99.02
64211;BME280;73293;48.538;14.354;2024-03-17T03:05:24;94294.09;;;4.79;99.02
64211;BME280;73293;48.538;14.354;2024-03-17T03:05:58;94293.00;;;4.78;98.85
64211;BME280;73293;48.538;14.354;2024-03-17T03:06:49;94291.84;;;4.79;98.79
64211;BME280;73293;48.538;14.354;2024-03-17T03:07:26;94289.89;;;4.76;98.67
64211;BME280;73293;48.538;14.354;2024-03-17T03:07:59;94285.64;;;4.76;98.56
64211;BME280;73293;48.538;14.354;2024-03-17T03:08:33;94286.98;;;4.73;98.39
64211;BME280;73293;48.538;14.354;2024-03-17T03:09:08;94286.71;;;4.69;98.35
64211;BME280;73293;48.538;14.354;2024-03-17T03:09:47;94288.20;;;4.65;98.04
64211;BME280;73293;48.538;14.354;2024-03-17T03:10:30;94289.94;;;4.63;97.73
64211;BME280;73293;48.538;14.354;2024-03-17T03:11:04;94289.50;;;4.56;97.50
64211;BME280;73293;48.538;14.354;2024-03-17T03:11:39;94291.07;;;4.53;97.43
64211;BME280;73293;48.538;14.354;2024-03-17T03:12:13;94291.94;;;4.50;97.41
64211;BME280;73293;48.538;14.354;2024-03-17T03:12:46;94290.03;;;4.46;97.43
64211;BME280;73293;48.538;14.354;2024-03-17T03:13:20;94291.58;;;4.45;97.55
64211;BME280;73293;48.538;14.354;2024-03-17T03:14:13;94288.90;;;4.43;97.62
64211;BME280;73293;48.538;14.354;2024-03-17T03:14:47;94284.95;;;4.37;97.68